Time;durP1;ratioP1;P1;durP2;ratioP2;P2;SDS_P1;SDS_P2;PMS_P1;PMS_P2;Temp;Humidity;BMP_temperature;BMP_pressure;BME280_temperature;BME280_humidity;BME280_pressure;Samples;Min_cycle;Max_cycle;Signal;HPM_P1;HPM_P2
2022/08/08 00:00:43;;;;;;;12.82;5.20;;;;;;;17.75;74.22;96426.66;5053773;28;20045;-66
2022/08/08 00:03:18;;;;;;;12.65;5.45;;;;;;;17.72;74.38;96426.88;5053644;28;20052;-67
2022/08/08 00:05:52;;;;;;;5.68;4.80;;;;;;;17.69;74.67;96430.56;5052855;28;20049;-64
2022/08/08 00:08:25;;;;;;;7.65;4.97;;;;;;;17.62;75.18;96429.31;5053586;28;20491;-65
2022/08/08 00:10:56;;;;;;;11.75;5.72;;;;;;;17.58;74.88;96433.94;5053624;28;20044;-64
2022/08/08 00:13:32;;;;;;;11.48;5.13;;;;;;;17.52;74.74;96434.41;5053514;28;20124;-66
2022/08/08 00:16:04;;;;;;;5.50;4.88;;;;;;;17.45;75.11;96431.31;5053350;28;20080;-65
2022/08/08 00:18:44;;;;;;;11.70;5.15;;;;;;;17.38;75.25;96430.03;5053277;28;20052;-65
2022/08/08 00:21:17;;;;;;;11.55;4.78;;;;;;;17.35;75.65;96431.09;5053408;28;20101;-63
2022/08/08 00:23:48;;;;;;;12.63;5.70;;;;;;;17.30;75.71;96436.69;5053221;28;20135;-65
2022/08/08 00:26:20;;;;;;;16.25;5.43;;;;;;;17.34;76.07;96436.47;5053357;28;20051;-68
2022/08/08 00:28:52;;;;;;;10.27;4.72;;;;;;;17.27;75.88;96436.03;5053284;28;20502;-64
2022/08/08 00:31:23;;;;;;;13.60;4.85;;;;;;;17.20;76.50;96440.03;5053170;28;20049;-63
2022/08/08 00:35:09;;;;;;;8.68;5.10;;;;;;;17.20;76.71;96435.59;5053213;28;20052;-66
2022/08/08 00:36:51;;;;;;;11.07;5.75;;;;;;;17.15;76.73;96440.34;5053074;28;20131;-65
2022/08/08 00:39:28;;;;;;;6.25;5.07;;;;;;;17.14;76.39;96434.22;5053056;28;20052;-67
2022/08/08 00:42:46;;;;;;;6.03;5.43;;;;;;;17.14;76.71;96436.00;5053162;28;20076;-66
2022/08/08 00:45:49;;;;;;;12.70;5.47;;;;;;;17.15;76.65;96437.69;5053209;28;20052;-67
2022/08/08 00:49:04;;;;;;;14.82;5.88;;;;;;;17.12;76.69;96436.09;5052906;28;20049;-63
2022/08/08 00:51:59;;;;;;;10.73;5.45;;;;;;;17.09;77.07;96438.09;5052888;28;20080;-63
2022/08/08 00:54:42;;;;;;;8.32;5.45;;;;;;;17.08;76.93;96434.63;5052894;28;20088;-65
2022/08/08 00:57:40;;;;;;;10.52;5.03;;;;;;;17.07;76.66;96432.09;5052847;28;20048;-65
2022/08/08 01:00:12;;;;;;;7.93;5.50;;;;;;;17.05;76.73;96432.16;5052893;28;20132;-64
2022/08/08 01:03:17;;;;;;;11.38;5.13;;;;;;;17.05;76.51;96427.72;5052816;28;20060;-65
2022/08/08 01:06:20;;;;;;;16.23;4.90;;;;;;;16.90;77.33;96423.44;5052737;28;20135;-67
2022/08/08 01:09:47;;;;;;;11.30;5.45;;;;;;;16.80;77.80;96428.50;5052822;28;20076;-66
2022/08/08 01:12:55;;;;;;;11.73;6.05;;;;;;;16.77;78.10;96426.03;4972128;28;20109;-66
2022/08/08 01:15:50;;;;;;;9.93;5.00;;;;;;;16.73;78.27;96428.03;5052900;28;20129;-65
2022/08/08 01:18:45;;;;;;;18.52;5.90;;;;;;;16.71;78.38;96429.06;5056458;28;20052;-63
2022/08/08 01:21:42;;;;;;;9.05;5.88;;;;;;;16.72;78.84;96439.53;5056761;28;20123;-66
2022/08/08 01:24:43;;;;;;;11.10;5.00;;;;;;;16.72;78.91;96431.63;5048804;28;20141;-64
2022/08/08 01:27:25;;;;;;;;;;;;;;;16.68;78.60;96428.31;5050604;28;20049;-62
2022/08/08 01:30:35;;;;;;;9.73;5.80;;;;;;;16.57;78.95;96427.31;5056509;28;19921;-66
2022/08/08 01:33:47;;;;;;;9.05;5.65;;;;;;;16.47;79.13;96432.34;5056498;28;20123;-63
2022/08/08 01:36:50;;;;;;;7.65;5.50;;;;;;;16.44;79.46;96429.91;5056485;28;20084;-61
2022/08/08 01:39:30;;;;;;;14.98;6.07;;;;;;;16.39;79.74;96432.81;5056396;28;20099;-66
2022/08/08 01:42:06;;;;;;;6.78;5.78;;;;;;;16.37;79.76;96427.66;5056340;28;20048;-65
2022/08/08 01:44:58;;;;;;;8.23;5.53;;;;;;;16.37;79.91;96432.06;5056381;28;20110;-64
2022/08/08 01:47:38;;;;;;;7.05;5.05;;;;;;;16.33;79.77;96430.56;5056320;28;20072;-63
2022/08/08 01:50:13;;;;;;;7.00;5.05;;;;;;;16.35;79.69;96436.63;5056264;28;20084;-68
2022/08/08 01:52:52;;;;;;;10.10;5.15;;;;;;;16.37;79.75;96434.72;5056112;28;20049;-67
2022/08/08 01:55:28;;;;;;;6.97;5.25;;;;;;;16.38;79.43;96431.97;5056150;28;20110;-65
2022/08/08 01:58:16;;;;;;;9.23;5.88;;;;;;;16.32;79.42;96428.88;5055958;28;20067;-67
2022/08/08 02:00:53;;;;;;;11.27;5.85;;;;;;;16.39;79.64;96436.31;5055991;28;20053;-61
2022/08/08 02:03:30;;;;;;;7.38;5.55;;;;;;;16.39;79.55;96441.59;5055998;28;20051;-62
2022/08/08 02:06:05;;;;;;;12.57;4.85;;;;;;;16.41;79.47;96439.69;5055918;28;20395;-61
2022/08/08 02:08:46;;;;;;;9.82;5.78;;;;;;;16.41;79.41;96438.88;5055945;28;20148;-62
2022/08/08 02:11:19;;;;;;;;;;;;;;;16.46;79.17;96441.22;5056349;28;20048;-63
2022/08/08 02:13:53;;;;;;;12.52;5.63;;;;;;;16.41;79.05;96447.63;5055794;28;20011;-62
2022/08/08 02:16:39;;;;;;;7.38;5.70;;;;;;;16.36;79.46;96441.81;5055868;28;20497;-63
2022/08/08 02:19:17;;;;;;;9.35;6.03;;;;;;;16.37;79.57;96448.75;5055729;28;20091;-66
2022/08/08 02:24:50;;;;;;;11.40;6.40;;;;;;;16.30;79.77;96436.91;5045286;28;20131;-65
2022/08/08 02:27:21;;;;;;;6.57;5.60;;;;;;;16.21;79.94;96437.47;5055006;28;20045;-66
2022/08/08 02:30:03;;;;;;;;;;;;;;;16.24;80.16;96439.91;5055854;28;20049;-63
2022/08/08 02:32:57;;;;;;;8.88;5.95;;;;;;;16.27;80.51;96434.44;5055545;28;19924;-66
2022/08/08 02:35:55;;;;;;;8.07;5.72;;;;;;;16.33;80.17;96439.34;5055557;28;20045;-61
2022/08/08 02:38:49;;;;;;;8.82;6.10;;;;;;;16.36;80.43;96433.88;5055396;28;20049;-64
2022/08/08 02:41:44;;;;;;;9.90;6.00;;;;;;;16.42;80.24;96437.91;5048855;28;20122;-65
2022/08/08 02:44:51;;;;;;;6.28;5.70;;;;;;;16.40;79.36;96445.94;5020324;28;20093;-64
2022/08/08 02:47:51;;;;;;;10.40;6.32;;;;;;;16.40;79.66;96440.66;5032817;28;20098;-65
2022/08/08 02:51:03;;;;;;;9.45;6.05;;;;;;;16.38;79.79;96442.53;5021302;28;20123;-65
2022/08/08 02:53:56;;;;;;;10.18;5.70;;;;;;;16.34;79.59;96442.84;5055005;28;20053;-63
2022/08/08 02:57:07;;;;;;;7.57;6.28;;;;;;;16.34;79.77;96446.31;5045346;28;20136;-67
2022/08/08 03:00:18;;;;;;;7.40;5.82;;;;;;;16.42;79.81;96448.47;4981362;28;20078;-62
2022/08/08 03:03:03;;;;;;;;;;;;;;;16.47;79.25;96450.81;4993000;28;20044;-68
2022/08/08 03:06:00;;;;;;;13.07;5.97;;;;;;;16.46;79.41;96449.97;5054587;28;20432;-68
2022/08/08 03:09:13;;;;;;;8.50;5.57;;;;;;;16.49;79.59;96455.06;5020245;28;20041;-67
2022/08/08 03:12:10;;;;;;;8.13;5.80;;;;;;;16.54;79.23;96457.41;5054636;28;20079;-64
2022/08/08 03:14:53;;;;;;;8.13;5.88;;;;;;;16.59;79.23;96443.91;5054629;28;20045;-67
2022/08/08 03:17:23;;;;;;;9.90;6.28;;;;;;;16.62;79.04;96451.66;5054469;28;20120;-67
2022/08/08 03:20:04;;;;;;;8.75;5.78;;;;;;;16.63;78.95;96448.91;5054538;28;20049;-63
2022/08/08 03:22:30;;;;;;;;;;;;;;;16.65;79.02;96456.72;5054862;28;20049;-66
2022/08/08 03:25:01;;;;;;;9.90;6.18;;;;;;;16.67;79.01;96460.09;5054650;28;19975;-65
2022/08/08 03:27:35;;;;;;;8.63;6.10;;;;;;;16.75;78.93;96451.69;5054542;28;20438;-62
2022/08/08 03:30:08;;;;;;;16.17;6.18;;;;;;;16.84;78.52;96456.38;5054435;28;20076;-65
2022/08/08 03:35:22;;;;;;;7.60;5.25;;;;;;;16.91;77.89;96459.47;5054554;28;20056;-66
2022/08/08 03:37:52;;;;;;;9.65;5.38;;;;;;;16.84;77.44;96466.97;5054186;28;20057;-66
2022/08/08 03:40:22;;;;;;;7.43;5.07;;;;;;;16.87;77.20;96464.13;5053405;28;20084;-65
2022/08/08 03:42:50;;;;;;;6.30;4.75;;;;;;;16.90;77.49;96469.22;5054035;28;20052;-66
2022/08/08 03:45:19;;;;;;;6.95;4.90;;;;;;;16.92;77.31;96471.75;5054231;28;20091;-65
2022/08/08 03:47:56;;;;;;;10.07;5.10;;;;;;;16.99;77.18;96466.91;5054063;28;20106;-65
2022/08/08 03:50:23;;;;;;;6.65;5.25;;;;;;;17.03;77.11;96471.88;5054030;28;20049;-65
2022/08/08 03:52:50;;;;;;;6.75;5.50;;;;;;;17.09;76.97;96473.31;5054029;28;20045;-62
2022/08/08 03:55:20;;;;;;;11.70;5.65;;;;;;;17.17;76.06;96478.94;5053894;28;20049;-65
2022/08/08 03:57:49;;;;;;;7.18;5.55;;;;;;;17.31;75.82;96474.53;5053827;28;20041;-63
2022/08/08 04:00:18;;;;;;;9.98;5.53;;;;;;;17.57;75.39;96477.22;5053790;28;20049;-65
2022/08/08 04:02:54;;;;;;;10.95;4.75;;;;;;;17.99;73.95;96478.81;5053715;28;20045;-65
2022/08/08 04:05:22;;;;;;;12.07;5.05;;;;;;;18.41;72.95;96482.13;5053597;28;20052;-65
2022/08/08 04:07:49;;;;;;;6.20;4.07;;;;;;;18.78;70.27;96485.75;5053730;28;20135;-65
2022/08/08 04:10:16;;;;;;;4.90;4.18;;;;;;;19.22;70.69;96490.56;5053658;28;20076;-64
2022/08/08 04:12:45;;;;;;;5.00;4.00;;;;;;;19.72;68.79;96487.72;5053609;28;20491;-61
2022/08/08 04:15:12;;;;;;;5.85;3.90;;;;;;;20.24;68.33;96482.03;5053578;28;20084;-66
2022/08/08 04:17:39;;;;;;;8.77;3.67;;;;;;;20.75;66.92;96481.63;5053382;28;20096;-65
2022/08/08 04:20:08;;;;;;;3.90;3.60;;;;;;;21.17;65.21;96484.44;5053561;28;20077;-63
2022/08/08 04:22:35;;;;;;;5.97;3.20;;;;;;;21.55;63.73;96473.41;5053540;28;20482;-62
2022/08/08 04:25:02;;;;;;;4.95;3.50;;;;;;;21.94;62.53;96483.47;5053469;28;20059;-63
2022/08/08 04:27:30;;;;;;;5.32;3.22;;;;;;;22.29;61.69;96486.75;5053341;28;20052;-65
2022/08/08 04:29:58;;;;;;;3.95;3.50;;;;;;;22.59;60.87;96485.91;5053273;28;20636;-65
2022/08/08 04:32:25;;;;;;;5.40;3.08;;;;;;;22.90;59.77;96484.19;5053236;28;20494;-63
2022/08/08 04:34:53;;;;;;;7.10;3.55;;;;;;;23.17;58.88;96495.97;5053144;28;20403;-66
2022/08/08 04:37:20;;;;;;;8.82;3.10;;;;;;;23.50;58.35;96485.91;5053243;28;20091;-63
2022/08/08 04:39:47;;;;;;;9.02;3.85;;;;;;;23.85;58.00;96491.66;5053187;28;20154;-65
2022/08/08 04:42:14;;;;;;;6.53;3.50;;;;;;;24.15;57.21;96491.59;5053287;28;20052;-64
2022/08/08 04:44:42;;;;;;;5.80;2.97;;;;;;;24.46;56.39;96494.03;5053054;28;20084;-65
2022/08/08 04:47:11;;;;;;;7.63;3.05;;;;;;;24.76;55.81;96493.88;5052981;28;20403;-63
2022/08/08 04:49:38;;;;;;;9.02;3.20;;;;;;;25.05;53.43;96499.13;5053079;28;20103;-65
2022/08/08 04:52:06;;;;;;;5.97;3.17;;;;;;;25.18;51.23;96503.22;5052966;28;20499;-62
2022/08/08 04:54:33;;;;;;;7.13;3.30;;;;;;;25.44;51.29;96497.13;5053101;28;20049;-66
2022/08/08 04:57:00;;;;;;;7.38;3.08;;;;;;;25.69;49.36;96505.41;5053171;28;20088;-61
2022/08/08 04:59:27;;;;;;;7.55;3.28;;;;;;;25.88;46.37;96506.22;5052906;28;20045;-64
2022/08/08 05:01:55;;;;;;;5.53;3.08;;;;;;;25.89;45.12;96499.88;5052953;28;20124;-65
2022/08/08 05:04:23;;;;;;;7.28;3.20;;;;;;;26.11;46.26;96499.34;5052839;28;20048;-63
2022/08/08 05:06:50;;;;;;;4.50;3.03;;;;;;;26.45;44.93;96502.25;5052640;28;20045;-64
2022/08/08 05:09:18;;;;;;;4.38;2.83;;;;;;;26.58;44.99;96502.63;5052981;28;20045;-66
2022/08/08 05:11:45;;;;;;;15.38;3.25;;;;;;;26.72;44.77;96501.19;5052949;28;20049;-64
2022/08/08 05:14:13;;;;;;;8.30;3.03;;;;;;;27.02;47.50;96500.81;5052900;28;20137;-64
2022/08/08 05:16:40;;;;;;;5.95;2.75;;;;;;;27.07;43.69;96503.00;5052806;28;20383;-63
2022/08/08 05:19:11;;;;;;;5.40;2.80;;;;;;;27.12;43.02;96506.06;5052685;28;20079;-65
2022/08/08 05:21:40;;;;;;;5.30;2.60;;;;;;;27.08;40.56;96499.31;5052757;28;20053;-65
2022/08/08 05:24:08;;;;;;;2.90;2.50;;;;;;;27.03;40.89;96505.16;5052743;28;20106;-64
2022/08/08 05:26:36;;;;;;;4.90;2.55;;;;;;;27.21;42.27;96510.41;5052752;28;20053;-64
2022/08/08 05:29:07;;;;;;;6.30;2.75;;;;;;;27.44;39.31;96517.84;5052738;28;20477;-63
2022/08/08 05:31:35;;;;;;;7.47;3.00;;;;;;;27.54;40.94;96514.19;5052696;28;20077;-63
2022/08/08 05:34:03;;;;;;;3.70;2.90;;;;;;;27.63;44.53;96515.84;5052560;28;20483;-63
2022/08/08 05:36:34;;;;;;;7.57;2.78;;;;;;;27.63;42.83;96516.69;5052484;28;20478;-63
2022/08/08 05:39:06;;;;;;;8.30;2.63;;;;;;;27.75;42.13;96509.16;5052493;28;20045;-66
2022/08/08 05:41:36;;;;;;;7.70;2.85;;;;;;;28.13;42.08;96519.38;5052621;28;20128;-65
2022/08/08 05:44:11;;;;;;;4.78;2.90;;;;;;;28.42;42.46;96517.19;5052468;28;20095;-62
2022/08/08 05:46:41;;;;;;;5.28;2.90;;;;;;;28.75;38.42;96516.22;5052479;28;20505;-66
2022/08/08 05:49:09;;;;;;;5.85;2.50;;;;;;;29.13;38.94;96523.63;5052399;28;20057;-63
2022/08/08 05:51:37;;;;;;;6.07;2.70;;;;;;;29.30;40.10;96526.22;5052486;28;20045;-66
2022/08/08 05:54:08;;;;;;;8.23;2.53;;;;;;;29.68;39.24;96525.50;5052556;28;20041;-65
2022/08/08 05:56:39;;;;;;;3.28;2.50;;;;;;;30.08;36.54;96515.41;5052531;28;20049;-64
2022/08/08 05:59:11;;;;;;;5.22;2.60;;;;;;;30.27;36.89;96524.00;5052336;28;20111;-64
2022/08/08 06:01:42;;;;;;;4.05;2.80;;;;;;;30.48;42.32;96517.88;5052464;28;20103;-63
2022/08/08 06:04:11;;;;;;;6.72;2.70;;;;;;;30.77;35.07;96528.88;5055493;28;20047;-61
2022/08/08 06:06:40;;;;;;;6.22;2.72;;;;;;;30.88;36.51;96530.28;5055781;28;20053;-63
2022/08/08 06:09:10;;;;;;;8.37;2.73;;;;;;;31.23;34.07;96522.38;5056006;28;20041;-64
2022/08/08 06:11:37;;;;;;;3.38;2.15;;;;;;;31.57;35.12;96528.16;5055960;28;20045;-66
2022/08/08 06:14:06;;;;;;;6.03;2.40;;;;;;;31.64;33.58;96525.53;5055749;28;20049;-64
2022/08/08 06:16:35;;;;;;;9.60;2.40;;;;;;;31.95;30.07;96528.94;5055783;28;20080;-66
2022/08/08 06:19:03;;;;;;;2.67;2.20;;;;;;;31.56;31.46;96534.59;5055760;28;20053;-63
2022/08/08 06:21:30;;;;;;;3.83;2.53;;;;;;;30.89;32.81;96537.34;5055905;28;20437;-64
2022/08/08 06:23:57;;;;;;;7.15;2.50;;;;;;;30.71;32.64;96535.84;5055527;28;20088;-64
2022/08/08 06:26:31;;;;;;;7.90;2.30;;;;;;;30.59;31.67;96537.31;5055554;28;20045;-65
2022/08/08 06:29:04;;;;;;;3.70;2.15;;;;;;;30.79;32.50;96544.88;5055530;28;20045;-64
2022/08/08 06:31:36;;;;;;;11.07;2.75;;;;;;;30.96;31.28;96546.34;5055630;28;20079;-63
2022/08/08 06:34:09;;;;;;;3.15;2.58;;;;;;;31.13;32.01;96551.56;5055462;28;20045;-65
2022/08/08 06:36:38;;;;;;;3.97;2.60;;;;;;;31.14;32.12;96551.38;5055452;28;20041;-65
2022/08/08 06:39:08;;;;;;;6.33;2.33;;;;;;;31.34;32.45;96547.22;5055217;28;20060;-65
2022/08/08 06:41:47;;;;;;;6.72;2.53;;;;;;;31.42;30.42;96541.72;5055381;28;20281;-64
2022/08/08 06:44:17;;;;;;;5.65;2.60;;;;;;;31.40;31.20;96550.00;5055319;28;20052;-64
2022/08/08 06:46:45;;;;;;;12.75;2.50;;;;;;;31.27;30.91;96556.06;5055317;28;20045;-66
2022/08/08 06:49:12;;;;;;;8.77;2.40;;;;;;;31.24;31.72;96551.03;5055177;28;20466;-64
2022/08/08 06:51:40;;;;;;;6.22;2.20;;;;;;;31.34;30.06;96544.50;5055129;28;20128;-63
2022/08/08 06:54:09;;;;;;;3.28;2.33;;;;;;;31.32;30.07;96552.81;5055058;28;20144;-64
2022/08/08 06:56:38;;;;;;;4.80;2.50;;;;;;;31.33;30.26;96546.38;5055087;28;20055;-65
2022/08/08 06:59:05;;;;;;;5.72;2.20;;;;;;;31.34;28.89;96539.97;5054930;28;20502;-65
2022/08/08 07:01:38;;;;;;;4.43;2.30;;;;;;;31.00;29.77;96547.66;5054873;28;20053;-63
2022/08/08 07:04:10;;;;;;;3.15;2.30;;;;;;;30.88;30.18;96551.88;5054906;28;20094;-65
2022/08/08 07:06:43;;;;;;;6.07;2.45;;;;;;;30.68;30.41;96551.56;5054652;28;20503;-63
2022/08/08 07:09:15;;;;;;;6.55;2.28;;;;;;;30.83;31.70;96544.34;5054826;28;20059;-65
2022/08/08 07:11:48;;;;;;;5.38;2.40;;;;;;;31.03;30.37;96543.72;5054672;28;20075;-65
2022/08/08 07:14:17;;;;;;;5.35;2.47;;;;;;;31.31;30.84;96545.75;5054664;28;20045;-64
2022/08/08 07:16:50;;;;;;;6.80;2.23;;;;;;;31.37;29.49;96544.16;5054679;28;20395;-67
2022/08/08 07:19:25;;;;;;;4.93;2.10;;;;;;;31.38;29.05;96552.06;5054549;28;20565;-64
2022/08/08 07:21:57;;;;;;;5.90;2.55;;;;;;;31.04;28.70;96542.72;5054543;28;20179;-65
2022/08/08 07:24:31;;;;;;;5.47;2.20;;;;;;;30.97;28.44;96547.22;5054449;28;20080;-65
2022/08/08 07:27:01;;;;;;;6.07;2.30;;;;;;;30.79;29.49;96551.09;5054500;28;20416;-63
2022/08/08 07:29:30;;;;;;;7.93;2.45;;;;;;;31.00;30.00;96544.94;5054408;28;20049;-62
2022/08/08 07:31:58;;;;;;;3.80;2.63;;;;;;;31.21;29.77;96553.31;5054226;28;20064;-62
2022/08/08 07:34:27;;;;;;;3.95;2.10;;;;;;;31.68;29.02;96553.00;5054252;28;20045;-64
2022/08/08 07:36:57;;;;;;;8.38;2.70;;;;;;;31.70;27.93;96554.50;5054279;28;20052;-64
2022/08/08 07:39:25;;;;;;;12.20;2.63;;;;;;;31.27;28.82;96550.66;5054260;28;20045;-62
2022/08/08 07:41:52;;;;;;;4.68;2.08;;;;;;;30.66;28.46;96553.63;5054172;28;20095;-64
2022/08/08 07:44:20;;;;;;;5.25;2.28;;;;;;;30.49;29.67;96560.00;5054097;28;20077;-62
2022/08/08 07:46:48;;;;;;;8.15;2.50;;;;;;;30.76;31.29;96556.91;5054111;28;20402;-63
2022/08/08 07:49:15;;;;;;;5.13;2.78;;;;;;;30.99;29.66;96550.53;5054012;28;20130;-66
2022/08/08 07:51:43;;;;;;;5.93;2.78;;;;;;;30.60;28.67;96550.63;5054032;28;20544;-65
2022/08/08 07:54:28;;;;;;;5.35;2.55;;;;;;;30.66;29.38;96550.91;5053912;28;20041;-62
2022/08/08 07:57:07;;;;;;;2.67;2.08;;;;;;;31.00;29.26;96554.94;5053942;28;20044;-66
2022/08/08 07:59:43;;;;;;;3.25;1.90;;;;;;;31.01;29.89;96556.59;5053695;28;20049;-65
2022/08/08 08:02:21;;;;;;;4.63;2.50;;;;;;;31.24;29.08;96542.94;5053879;28;20080;-63
2022/08/08 08:04:52;;;;;;;5.55;2.22;;;;;;;31.42;28.86;96549.00;5053622;28;20483;-66
2022/08/08 08:07:21;;;;;;;8.15;2.38;;;;;;;31.29;28.84;96550.47;5053636;28;20099;-64
2022/08/08 08:09:49;;;;;;;7.57;2.87;;;;;;;31.20;29.19;96546.22;5053649;28;20060;-66
2022/08/08 08:12:20;;;;;;;7.47;2.13;;;;;;;30.98;28.94;96543.47;5053591;28;20044;-66
2022/08/08 08:14:57;;;;;;;7.45;2.10;;;;;;;30.45;29.61;96549.78;5053706;28;20095;-62
2022/08/08 08:17:27;;;;;;;5.30;2.13;;;;;;;30.41;31.72;96540.38;5053460;28;20056;-63
2022/08/08 08:19:58;;;;;;;5.60;2.10;;;;;;;30.72;29.22;96547.44;5053479;28;20126;-61
2022/08/08 08:22:25;;;;;;;4.30;2.40;;;;;;;31.32;28.53;96541.16;5053549;28;20075;-65
2022/08/08 08:24:52;;;;;;;2.63;2.05;;;;;;;31.60;26.96;96548.56;5053117;28;20106;-64
2022/08/08 08:27:20;;;;;;;4.65;2.22;;;;;;;31.43;28.41;96546.09;5053198;28;20056;-66
2022/08/08 08:29:49;;;;;;;11.38;2.60;;;;;;;31.74;28.23;96550.38;5053268;28;20132;-62
2022/08/08 08:32:16;;;;;;;4.60;2.22;;;;;;;31.49;27.45;96544.50;5053155;28;20124;-64
2022/08/08 08:34:43;;;;;;;3.83;1.67;;;;;;;31.21;28.45;96535.22;5053163;28;20045;-63
2022/08/08 08:37:11;;;;;;;5.22;1.95;;;;;;;31.63;26.64;96549.00;5053274;28;20202;-65
2022/08/08 08:39:38;;;;;;;5.28;2.05;;;;;;;31.68;24.46;96543.03;5052982;28;20063;-63
2022/08/08 08:42:06;;;;;;;2.67;2.00;;;;;;;31.61;25.75;96547.53;5053069;28;20088;-63
2022/08/08 08:44:33;;;;;;;4.32;2.30;;;;;;;31.58;27.04;96551.47;5053231;28;20048;-66
2022/08/08 08:47:03;;;;;;;3.53;2.20;;;;;;;31.26;26.86;96562.50;5053240;28;20045;-65
2022/08/08 08:49:31;;;;;;;11.20;1.80;;;;;;;30.99;24.41;96540.59;5053087;28;20487;-66
2022/08/08 08:52:01;;;;;;;6.07;2.08;;;;;;;30.93;24.85;96537.78;5053264;28;20056;-66
2022/08/08 08:54:32;;;;;;;4.28;1.92;;;;;;;30.77;24.89;96540.53;5052979;28;20053;-64
2022/08/08 08:57:00;;;;;;;7.15;2.13;;;;;;;30.57;28.15;96545.59;5052972;28;20110;-64
2022/08/08 08:59:31;;;;;;;7.03;2.10;;;;;;;30.71;28.77;96535.84;5035084;28;20134;-63
2022/08/08 09:01:59;;;;;;;4.05;2.03;;;;;;;30.54;26.69;96545.97;5053029;28;20055;-64
2022/08/08 09:04:33;;;;;;;7.55;1.60;;;;;;;30.48;24.25;96536.75;5052673;28;20053;-65
2022/08/08 09:07:02;;;;;;;2.00;1.30;;;;;;;30.30;24.05;96537.13;5052735;28;20053;-68
2022/08/08 09:09:31;;;;;;;7.18;1.90;;;;;;;30.20;25.19;96540.09;5052929;28;20059;-63
2022/08/08 09:12:01;;;;;;;5.00;2.28;;;;;;;30.30;25.14;96531.72;5053030;28;20045;-62
2022/08/08 09:14:29;;;;;;;7.03;1.52;;;;;;;30.75;24.86;96533.59;5052951;28;20045;-65
2022/08/08 09:16:56;;;;;;;5.78;1.40;;;;;;;30.60;24.49;96528.19;5052772;28;20103;-62
2022/08/08 09:19:25;;;;;;;5.38;1.63;;;;;;;30.26;25.70;96530.41;5052598;28;20045;-65
2022/08/08 09:21:55;;;;;;;8.27;1.67;;;;;;;30.35;24.36;96531.16;5052813;28;20049;-63
2022/08/08 09:24:24;;;;;;;5.43;1.83;;;;;;;30.74;24.87;96534.63;5052718;28;20111;-65
2022/08/08 09:27:05;;;;;;;6.15;1.88;;;;;;;31.38;24.74;96518.81;5052737;28;20473;-63
2022/08/08 09:29:36;;;;;;;;;;;;;;;31.67;23.55;96527.84;5052940;28;20053;-67
2022/08/08 09:32:05;;;;;;;7.75;2.00;;;;;;;32.02;23.08;96521.72;5052813;28;19943;-66
2022/08/08 09:34:34;;;;;;;6.35;2.00;;;;;;;31.76;23.42;96528.53;5052591;28;20442;-65
2022/08/08 09:37:07;;;;;;;3.75;2.10;;;;;;;31.81;24.20;96523.38;5052752;28;20407;-63
2022/08/08 09:39:42;;;;;;;2.70;1.80;;;;;;;32.18;23.69;96507.09;5056463;28;20052;-64
2022/08/08 09:42:14;;;;;;;2.10;1.65;;;;;;;32.15;22.95;96532.63;5056376;28;20128;-66
2022/08/08 09:45:00;;;;;;;5.47;1.80;;;;;;;32.05;22.51;96513.22;5056279;28;20049;-64
2022/08/08 09:47:29;;;;;;;6.72;1.90;;;;;;;31.89;23.99;96512.44;5056274;28;20041;-65
2022/08/08 09:49:58;;;;;;;3.35;1.75;;;;;;;31.74;24.32;96511.69;5056306;28;20110;-64
2022/08/08 09:52:32;;;;;;;3.55;1.95;;;;;;;31.92;23.71;96502.25;5055989;28;20048;-65
2022/08/08 09:55:01;;;;;;;7.88;2.35;;;;;;;31.41;24.11;96507.63;5056292;28;20045;-63
2022/08/08 09:57:33;;;;;;;7.53;2.38;;;;;;;31.23;24.83;96510.72;5056120;28;20618;-64
2022/08/08 10:00:02;;;;;;;6.32;2.60;;;;;;;31.11;24.35;96497.72;5055994;28;20081;-66
2022/08/08 10:02:35;;;;;;;5.25;1.73;;;;;;;31.52;24.50;96498.19;5056130;28;20049;-64
2022/08/08 10:05:12;;;;;;;7.25;1.90;;;;;;;32.13;23.97;96504.97;5055745;28;20071;-63
2022/08/08 10:07:54;;;;;;;7.07;2.20;;;;;;;32.06;23.72;96509.50;5055993;28;20049;-65
2022/08/08 10:10:25;;;;;;;4.88;2.10;;;;;;;31.69;24.11;96512.25;5055899;28;20048;-63
2022/08/08 10:12:53;;;;;;;5.13;1.98;;;;;;;31.28;24.63;96506.41;5055853;28;20052;-63
2022/08/08 10:15:22;;;;;;;8.30;1.85;;;;;;;30.89;25.04;96499.56;5055944;28;20049;-66
2022/08/08 10:17:51;;;;;;;8.10;1.90;;;;;;;30.72;25.55;96501.56;5055792;28;20049;-65
2022/08/08 10:20:20;;;;;;;7.43;2.35;;;;;;;30.71;26.56;96510.72;5055731;28;20049;-64
2022/08/08 10:22:57;;;;;;;2.30;1.75;;;;;;;30.42;25.96;96512.38;5055834;28;20053;-65
2022/08/08 10:25:25;;;;;;;5.13;2.00;;;;;;;30.16;26.28;96505.56;5055663;28;20049;-67
2022/08/08 10:27:54;;;;;;;5.03;1.85;;;;;;;30.60;25.42;96499.38;5055663;28;20079;-67
2022/08/08 10:30:22;;;;;;;4.60;1.90;;;;;;;31.14;26.33;96491.09;5055476;28;20049;-66
2022/08/08 10:32:55;;;;;;;5.22;1.85;;;;;;;31.58;24.38;96489.31;5055427;28;20102;-67
2022/08/08 10:35:24;;;;;;;5.30;1.85;;;;;;;31.60;25.10;96489.94;5055440;28;20503;-64
2022/08/08 10:37:56;;;;;;;2.67;1.67;;;;;;;31.38;24.93;96494.50;5055352;28;20068;-65
2022/08/08 10:40:24;;;;;;;3.45;1.98;;;;;;;31.05;24.96;96493.09;5055339;28;20099;-65
2022/08/08 10:42:56;;;;;;;4.28;2.10;;;;;;;30.76;25.93;96492.94;5055535;28;20053;-65
2022/08/08 10:45:23;;;;;;;9.35;2.20;;;;;;;30.60;25.38;96496.66;5055194;28;20131;-65
2022/08/08 10:47:55;;;;;;;2.75;1.75;;;;;;;30.45;25.11;96493.13;5055270;28;20049;-63
2022/08/08 10:50:32;;;;;;;3.85;1.77;;;;;;;30.41;26.33;96491.81;5055103;28;20049;-66
2022/08/08 10:53:05;;;;;;;4.80;2.15;;;;;;;30.84;25.82;96486.63;5055172;28;20128;-65
2022/08/08 10:55:33;;;;;;;6.38;2.35;;;;;;;31.26;25.87;96477.94;5055064;28;20487;-65
2022/08/08 10:58:03;;;;;;;3.05;1.58;;;;;;;31.07;25.06;96482.94;5055099;28;20060;-62
2022/08/08 11:00:32;;;;;;;3.13;1.92;;;;;;;30.85;25.45;96485.59;5054949;28;20187;-64
2022/08/08 11:03:11;;;;;;;4.30;2.40;;;;;;;30.76;25.97;96495.66;5055003;28;20092;-64
2022/08/08 11:05:43;;;;;;;6.55;1.92;;;;;;;31.15;24.98;96476.56;5054676;28;20538;-64
2022/08/08 11:08:21;;;;;;;7.22;2.25;;;;;;;31.58;24.87;96489.31;5054994;28;20052;-66
2022/08/08 11:10:49;;;;;;;5.30;1.88;;;;;;;31.89;24.38;96496.22;5054807;28;20049;-66
2022/08/08 11:13:20;;;;;;;5.63;2.25;;;;;;;31.81;25.31;96477.44;5054754;28;20049;-66
2022/08/08 11:15:48;;;;;;;2.75;1.98;;;;;;;31.70;25.40;96476.13;5054734;28;20049;-63
2022/08/08 11:18:17;;;;;;;4.82;2.20;;;;;;;31.82;24.96;96471.00;5054619;28;20052;-67
2022/08/08 11:20:45;;;;;;;4.47;2.00;;;;;;;31.92;23.86;96476.09;5054477;28;20049;-66
2022/08/08 11:23:17;;;;;;;2.58;2.10;;;;;;;31.58;23.86;96474.94;5054499;28;20106;-64
2022/08/08 11:25:46;;;;;;;4.47;2.13;;;;;;;31.45;24.50;96460.28;5054597;28;20056;-66
2022/08/08 11:28:16;;;;;;;4.25;2.05;;;;;;;31.29;24.90;96472.16;5054552;28;20483;-63
2022/08/08 11:30:43;;;;;;;;;;;;;;;31.03;24.40;96476.22;5055008;28;20056;-64
2022/08/08 11:33:11;;;;;;;8.27;2.10;;;;;;;30.73;24.47;96462.78;5054237;28;20337;-64
2022/08/08 11:35:39;;;;;;;2.92;1.92;;;;;;;30.64;24.58;96470.16;5054308;28;20052;-68
2022/08/08 11:38:07;;;;;;;4.80;1.90;;;;;;;30.50;24.68;96467.28;5054147;28;20041;-66
2022/08/08 11:40:35;;;;;;;3.97;2.15;;;;;;;30.58;24.51;96466.31;5054164;28;20567;-64
2022/08/08 11:43:03;;;;;;;10.00;1.92;;;;;;;31.00;23.82;96458.56;5054409;28;20057;-69
2022/08/08 11:45:30;;;;;;;6.53;1.90;;;;;;;31.50;23.55;96441.63;5054243;28;20076;-64
2022/08/08 11:47:58;;;;;;;5.55;1.88;;;;;;;31.78;23.69;96448.94;5054141;28;20055;-68
2022/08/08 11:50:26;;;;;;;4.03;2.15;;;;;;;31.64;22.42;96452.56;5053928;28;20490;-65
2022/08/08 11:52:56;;;;;;;5.90;1.70;;;;;;;31.45;23.67;96451.34;5054061;28;20060;-66
2022/08/08 11:55:25;;;;;;;;;;;;;;;30.91;24.59;96459.69;5054330;28;20045;-68
2022/08/08 11:58:03;;;;;;;5.05;2.38;;;;;;;30.54;24.31;96465.03;5053879;28;19932;-64
2022/08/08 12:00:31;;;;;;;7.47;2.05;;;;;;;30.37;24.34;96462.53;5052961;28;20095;-66
2022/08/08 12:02:59;;;;;;;3.00;1.95;;;;;;;30.41;24.18;96454.06;5053863;28;20049;-63
2022/08/08 12:05:34;;;;;;;4.28;2.13;;;;;;;30.81;24.26;96445.66;5053470;28;20053;-65
2022/08/08 12:08:02;;;;;;;3.55;1.75;;;;;;;31.30;24.14;96437.88;5053700;28;20045;-63
2022/08/08 12:10:31;;;;;;;3.25;1.92;;;;;;;31.48;22.63;96440.16;5053708;28;20057;-67
2022/08/08 12:13:05;;;;;;;3.63;2.30;;;;;;;31.25;24.48;96442.00;5053610;28;20071;-66